Time;durP1;ratioP1;P1;durP2;ratioP2;P2;SDS_P1;SDS_P2;PMS_P1;PMS_P2;Temp;Humidity;BMP_temperature;BMP_pressure;BME280_temperature;BME280_humidity;BME280_pressure;Samples;Min_cycle;Max_cycle;Signal;HPM_P1;HPM_P2
2023/05/23 00:01:36;;;;;;;8.70;7.90;;;17.90;79.40;;;17.83;65.71;97549.22;5011511;28;20487;-70
2023/05/23 00:04:03;;;;;;;9.63;7.87;;;17.90;79.70;;;17.55;65.96;97517.81;4998478;28;20447;-69
2023/05/23 00:06:31;;;;;;;10.00;8.47;;;17.90;80.00;;;17.11;66.11;97450.91;5000905;28;20512;-70
2023/05/23 00:09:00;;;;;;;8.40;7.57;;;17.80;80.00;;;17.70;66.12;97547.03;5008895;28;20473;-71
2023/05/23 00:11:28;;;;;;;12.77;7.80;;;17.80;80.30;;;17.38;66.15;97491.59;5026410;28;20458;-71
2023/05/23 00:13:56;;;;;;;8.37;7.50;;;17.80;80.30;;;17.56;66.25;97536.66;5024351;28;20935;-71
2023/05/23 00:16:23;;;;;;;8.63;7.70;;;17.80;80.30;;;17.60;66.31;97538.84;5002456;28;20684;-70
2023/05/23 00:18:50;;;;;;;8.63;7.80;;;17.80;80.50;;;17.65;66.51;97547.00;5018318;28;20462;-69
2023/05/23 00:21:17;;;;;;;9.93;7.60;;;17.80;80.70;;;17.58;66.80;97552.75;5010490;28;21073;-71
2023/05/23 00:23:45;;;;;;;9.33;7.20;;;17.70;80.80;;;17.63;66.52;97552.78;5013716;28;20455;-71
2023/05/23 00:26:13;;;;;;;9.70;7.57;;;17.70;80.80;;;17.18;66.97;97488.84;5033252;28;20449;-70
2023/05/23 00:28:40;;;;;;;8.47;7.63;;;17.70;81.20;;;17.45;67.68;97553.31;4994934;28;20966;-71
2023/05/23 00:31:08;;;;;;;8.63;7.50;;;17.60;81.30;;;17.55;67.20;97553.31;5013234;28;20462;-71
2023/05/23 00:33:35;;;;;;;7.93;7.13;;;17.70;81.50;;;17.53;67.43;97561.78;5003513;28;20528;-71
2023/05/23 00:36:02;;;;;;;8.90;7.47;;;17.60;81.60;;;17.41;67.93;97555.75;5014899;28;20455;-70
2023/05/23 00:38:29;;;;;;;11.87;7.70;;;17.60;81.90;;;17.38;68.82;97556.31;5000932;28;20462;-70
2023/05/23 00:40:56;;;;;;;11.10;7.37;;;17.60;82.30;;;17.35;68.72;97559.56;5022007;28;20482;-70
2023/05/23 00:43:28;;;;;;;10.30;7.57;;;17.60;82.60;;;17.35;69.06;97557.66;5014325;28;20458;-69
2023/05/23 00:45:55;;;;;;;9.63;8.63;;;17.50;82.90;;;16.87;69.38;97497.75;4991069;28;20622;-69
2023/05/23 00:48:22;;;;;;;8.80;7.20;;;17.50;83.30;;;17.17;69.68;97550.00;4997295;28;20458;-69
2023/05/23 00:50:50;;;;;;;10.30;7.77;;;17.40;83.60;;;17.17;69.99;97564.44;5016528;28;20470;-69
2023/05/23 00:53:17;;;;;;;8.40;7.30;;;17.40;84.00;;;17.22;69.89;97578.13;5018141;28;20466;-71
2023/05/23 00:55:46;;;;;;;10.13;8.17;;;17.40;84.40;;;17.09;70.39;97556.81;5000699;28;20531;-69
2023/05/23 00:58:14;;;;;;;8.47;7.67;;;17.40;84.70;;;17.11;70.85;97571.00;5018144;28;20462;-68
2023/05/23 01:00:45;;;;;;;10.57;8.50;;;17.30;85.30;;;17.03;71.16;97568.78;5003371;28;20548;-69
2023/05/23 01:03:16;;;;;;;8.93;7.83;;;17.20;85.70;;;16.98;71.58;97570.38;5019629;28;20486;-68
2023/05/23 01:05:44;;;;;;;9.70;7.87;;;17.20;86.20;;;16.82;72.14;97563.22;5011371;28;20462;-71
2023/05/23 01:08:14;;;;;;;10.77;8.17;;;17.10;86.80;;;16.90;72.23;97575.53;5016432;28;20463;-68
2023/05/23 01:10:41;;;;;;;11.73;8.37;;;17.10;87.20;;;16.89;72.49;97580.16;5008389;28;20538;-70
2023/05/23 01:13:20;;;;;;;9.47;8.57;;;17.00;87.60;;;16.82;72.51;97565.97;5009161;28;20522;-69
2023/05/23 01:15:58;;;;;;;8.27;7.00;;;16.90;88.10;;;16.80;72.87;97570.88;5009489;28;20491;-71
2023/05/23 01:18:33;;;;;;;11.97;7.90;;;16.80;88.70;;;16.66;73.28;97560.44;5007508;28;20589;-71
2023/05/23 01:21:07;;;;;;;8.70;7.70;;;16.80;89.40;;;16.65;73.98;97575.16;4995167;28;20577;-70
2023/05/23 01:24:25;;;;;;;9.17;8.27;;;16.70;90.00;;;16.63;74.29;97574.63;5005145;28;20458;-70
2023/05/23 01:27:08;;;;;;;9.30;7.37;;;16.70;90.20;;;16.68;74.16;97568.34;5020347;28;20842;-70
2023/05/23 01:29:42;;;;;;;9.50;8.10;;;16.70;90.50;;;16.75;73.83;97557.19;5008633;28;20543;-70
2023/05/23 01:32:12;;;;;;;8.47;7.63;;;16.70;90.60;;;16.61;73.89;97557.72;5015198;28;20889;-70
2023/05/23 01:34:41;;;;;;;9.60;8.30;;;16.60;90.50;;;16.51;74.77;97563.09;5006822;28;20462;-70
2023/05/23 01:37:10;;;;;;;8.80;7.83;;;16.50;90.90;;;16.46;75.30;97563.09;5014354;28;20545;-70
2023/05/23 01:39:38;;;;;;;9.43;7.50;;;16.50;91.10;;;16.55;75.01;97559.59;5017570;28;20463;-70
2023/05/23 01:42:07;;;;;;;9.40;8.40;;;16.60;91.10;;;16.60;74.52;97558.75;5022934;28;20518;-71
2023/05/23 01:44:37;;;;;;;9.37;7.60;;;16.60;91.10;;;16.57;74.62;97562.03;5018597;28;20958;-71
2023/05/23 01:47:06;;;;;;;9.23;7.97;;;16.60;91.20;;;16.58;75.03;97563.66;5018080;28;20566;-70
2023/05/23 01:49:34;;;;;;;9.93;7.90;;;16.60;91.20;;;16.56;75.01;97569.41;5015264;28;20832;-68
2023/05/23 01:52:02;;;;;;;9.03;7.73;;;16.60;91.20;;;16.54;74.90;97568.84;5018339;28;20828;-70
2023/05/23 01:54:31;;;;;;;8.93;8.03;;;16.50;91.20;;;16.57;74.86;97572.94;4993782;28;20463;-70
2023/05/23 01:56:58;;;;;;;9.93;8.20;;;16.60;91.30;;;16.23;74.28;97494.28;5014809;28;20457;-71
2023/05/23 01:59:26;;;;;;;9.27;7.43;;;16.70;90.90;;;16.70;74.68;97568.94;5015418;28;20485;-70
2023/05/23 02:01:55;;;;;;;11.70;9.07;;;16.70;90.80;;;16.67;74.73;97551.19;5019863;28;21126;-70
2023/05/23 02:04:22;;;;;;;9.40;8.03;;;16.80;90.80;;;16.74;74.48;97578.22;5004329;28;20463;-70
2023/05/23 02:06:49;;;;;;;11.07;8.60;;;16.80;90.60;;;16.74;74.62;97571.91;5022220;28;20458;-71
2023/05/23 02:09:16;;;;;;;12.23;9.20;;;16.70;90.80;;;16.69;74.68;97581.72;5023437;28;20501;-70
2023/05/23 02:11:43;;;;;;;11.70;8.67;;;16.80;90.70;;;16.67;74.70;97567.53;5011989;28;20504;-70
2023/05/23 02:14:11;;;;;;;9.37;8.23;;;16.80;90.80;;;16.75;74.24;97568.94;5018905;28;20466;-68
2023/05/23 02:16:39;;;;;;;10.50;7.83;;;16.80;90.60;;;16.64;74.94;97576.25;5024394;28;20522;-72
2023/05/23 02:19:07;;;;;;;9.43;8.00;;;16.70;90.80;;;16.60;74.80;97566.94;5024700;28;20459;-70
2023/05/23 02:21:34;;;;;;;10.03;8.37;;;16.70;90.90;;;16.48;75.91;97574.56;5018352;28;20681;-70
2023/05/23 02:24:01;;;;;;;9.70;8.00;;;16.60;91.30;;;16.50;75.37;97561.47;5004351;28;20459;-70
2023/05/23 02:26:29;;;;;;;10.30;9.17;;;16.60;91.40;;;16.42;75.96;97565.53;5000895;28;20467;-71
2023/05/23 02:28:56;;;;;;;10.33;7.90;;;16.50;91.50;;;16.36;76.02;97574.72;5009704;28;20462;-70
2023/05/23 02:31:23;;;;;;;9.37;7.77;;;16.40;91.70;;;16.48;75.78;97569.09;5000835;28;20563;-70
2023/05/23 02:33:50;;;;;;;10.90;8.07;;;16.40;91.90;;;16.27;76.89;97563.50;5017502;28;20506;-70
2023/05/23 02:36:19;;;;;;;9.50;7.70;;;16.30;92.10;;;16.32;76.53;97568.19;5023879;28;20458;-70
2023/05/23 02:38:46;;;;;;;11.83;8.03;;;16.30;92.20;;;16.21;76.98;97568.09;5001025;28;20561;-70
2023/05/23 02:41:14;;;;;;;9.27;8.00;;;16.20;92.50;;;16.17;77.65;97583.34;5017742;28;20529;-69
2023/05/23 02:43:41;;;;;;;11.40;9.47;;;16.20;92.70;;;16.21;77.54;97583.66;5002195;28;20978;-70
2023/05/23 02:46:08;;;;;;;9.53;8.30;;;16.20;92.80;;;16.16;77.56;97594.53;5021088;28;20470;-70
2023/05/23 02:48:35;;;;;;;11.27;8.43;;;16.20;92.60;;;16.14;77.71;97592.88;5015131;28;20545;-69
2023/05/23 02:51:03;;;;;;;10.13;8.43;;;16.20;92.70;;;16.01;78.04;97601.50;5015168;28;20461;-70
2023/05/23 02:53:31;;;;;;;8.70;7.63;;;16.10;92.90;;;16.03;78.41;97607.53;5007273;28;20458;-70
2023/05/23 02:55:58;;;;;;;10.60;8.93;;;16.10;93.20;;;16.07;78.59;97599.63;4997461;28;20998;-70
2023/05/23 02:58:26;;;;;;;10.20;8.60;;;16.10;93.10;;;16.00;78.82;97603.41;5014436;28;20462;-69
2023/05/23 03:00:53;;;;;;;9.77;8.47;;;16.10;93.20;;;15.94;79.16;97609.91;5019215;28;20544;-69
2023/05/23 03:03:20;;;;;;;11.90;8.80;;;16.00;93.70;;;15.81;79.61;97605.66;5003309;28;20520;-69
2023/05/23 03:05:48;;;;;;;11.67;9.03;;;15.90;93.80;;;15.81;79.34;97600.22;5005049;28;20456;-67
2023/05/23 03:08:15;;;;;;;9.80;7.87;;;15.90;94.10;;;15.73;80.53;97614.31;5017969;28;20455;-70
2023/05/23 03:10:44;;;;;;;11.20;8.80;;;15.80;94.40;;;15.85;80.10;97611.44;5005107;28;20471;-70
2023/05/23 03:13:11;;;;;;;10.90;9.67;;;15.90;94.50;;;15.70;80.49;97612.13;5006803;28;20463;-69
2023/05/23 03:15:38;;;;;;;13.73;9.10;;;15.90;94.60;;;15.62;80.91;97607.13;5020308;28;20480;-69
2023/05/23 03:18:06;;;;;;;11.90;8.93;;;15.80;94.70;;;15.70;81.04;97610.22;5004835;28;20536;-69
2023/05/23 03:20:33;;;;;;;17.60;9.80;;;15.80;94.80;;;15.75;80.42;97612.16;5007883;28;20458;-70
2023/05/23 03:23:00;;;;;;;9.87;7.77;;;15.90;94.60;;;15.70;80.63;97614.84;5018217;28;20481;-68
2023/05/23 03:25:28;;;;;;;9.90;8.70;;;15.80;94.70;;;15.63;81.05;97619.69;5000675;28;20461;-68
2023/05/23 03:27:57;;;;;;;10.93;8.90;;;15.80;95.00;;;15.75;80.74;97623.06;4988765;28;20469;-70
2023/05/23 03:30:24;;;;;;;9.63;8.27;;;15.80;95.10;;;15.70;81.37;97620.31;5003161;28;20483;-68
2023/05/23 03:32:52;;;;;;;11.00;8.90;;;15.80;95.20;;;15.69;81.25;97626.81;5019911;28;20469;-71
2023/05/23 03:35:19;;;;;;;10.83;8.53;;;15.80;95.30;;;15.62;81.69;97634.38;5018132;28;20457;-70
2023/05/23 03:37:47;;;;;;;11.33;9.50;;;15.80;95.40;;;15.63;81.59;97630.56;5023120;28;20531;-70
2023/05/23 03:40:14;;;;;;;11.30;8.93;;;15.70;95.70;;;15.66;81.71;97630.03;5009575;28;20866;-71
2023/05/23 03:42:42;;;;;;;10.63;8.47;;;15.80;95.40;;;15.66;81.11;97630.03;5009633;28;20475;-69
2023/05/23 03:45:11;;;;;;;12.33;9.07;;;15.80;95.20;;;15.53;82.41;97637.53;5017525;28;20467;-70
2023/05/23 03:47:38;;;;;;;10.60;9.10;;;15.80;95.60;;;15.54;82.52;97633.78;5027112;28;20447;-69
2023/05/23 03:50:07;;;;;;;12.17;9.07;;;15.80;95.70;;;15.59;82.50;97657.47;5014802;28;21192;-70
2023/05/23 03:52:34;;;;;;;13.13;7.90;;;15.80;95.70;;;15.66;82.39;97654.56;5010517;28;21050;-70
2023/05/23 03:55:01;;;;;;;11.37;8.60;;;15.80;95.80;;;15.89;81.48;97650.72;5008075;28;20878;-69
2023/05/23 03:57:28;;;;;;;10.30;8.67;;;15.90;95.70;;;15.76;82.03;97643.75;5020542;28;20496;-70
2023/05/23 03:59:55;;;;;;;9.23;7.77;;;15.90;95.50;;;15.93;80.95;97640.13;5025851;28;20478;-70
2023/05/23 04:02:24;;;;;;;10.17;8.83;;;16.00;95.30;;;15.82;81.77;97650.88;5018917;28;20521;-68
2023/05/23 04:04:52;;;;;;;10.23;8.40;;;15.90;95.00;;;15.86;81.41;97641.13;4994170;28;20466;-69
2023/05/23 04:07:19;;;;;;;11.50;8.60;;;16.00;95.20;;;15.84;80.98;97620.69;5017069;28;20545;-70
2023/05/23 04:09:47;;;;;;;11.70;9.00;;;16.00;95.00;;;16.06;80.32;97645.13;5009710;28;20469;-70
2023/05/23 04:12:14;;;;;;;12.27;8.73;;;16.10;94.60;;;16.14;80.14;97641.91;5014339;28;20476;-71
2023/05/23 04:14:41;;;;;;;10.40;8.90;;;16.20;94.80;;;16.09;80.48;97639.16;5016462;28;20940;-70
2023/05/23 04:17:09;;;;;;;10.87;8.57;;;16.20;94.20;;;16.10;80.56;97640.81;5008675;28;20494;-70
2023/05/23 04:19:37;;;;;;;10.30;8.30;;;16.20;94.50;;;16.01;80.83;97653.28;5014318;28;20465;-69
2023/05/23 04:22:05;;;;;;;9.10;8.17;;;16.20;94.30;;;16.07;80.74;97646.78;5006344;28;20473;-70
2023/05/23 04:24:32;;;;;;;11.73;10.10;;;16.20;94.50;;;16.08;80.25;97647.63;5024599;28;20502;-72
2023/05/23 04:26:59;;;;;;;11.90;9.40;;;16.30;94.10;;;16.01;80.79;97658.72;5021323;28;20950;-71
2023/05/23 04:29:30;;;;;;;9.93;7.97;;;16.20;94.40;;;15.97;81.19;97646.69;5014375;28;20528;-71
2023/05/23 04:31:57;;;;;;;10.20;8.30;;;16.20;94.70;;;16.09;81.27;97665.59;4998961;28;20556;-69
2023/05/23 04:34:25;;;;;;;10.80;9.60;;;16.20;94.80;;;16.06;81.01;97655.19;5010496;28;20517;-70
2023/05/23 04:36:54;;;;;;;10.80;8.50;;;16.30;94.70;;;16.16;81.32;97665.38;5011780;28;20478;-70
2023/05/23 04:39:21;;;;;;;11.33;8.80;;;16.20;95.00;;;16.09;80.58;97647.34;4995247;28;20451;-70
2023/05/23 04:41:49;;;;;;;14.17;8.70;;;16.30;94.60;;;16.36;80.28;97667.41;5018168;28;20629;-70
2023/05/23 04:44:16;;;;;;;10.10;8.50;;;16.40;94.30;;;16.28;80.36;97669.56;5016205;28;20494;-70
2023/05/23 04:46:44;;;;;;;11.37;8.93;;;16.40;94.40;;;16.22;80.46;97676.03;4992551;28;20464;-69
2023/05/23 04:49:11;;;;;;;9.17;7.70;;;16.40;94.40;;;16.08;81.33;97659.31;5015303;28;20808;-70
2023/05/23 04:51:39;;;;;;;10.30;8.60;;;16.30;94.60;;;16.10;81.84;97689.84;5013019;28;20498;-70
2023/05/23 04:54:07;;;;;;;13.13;8.70;;;16.30;95.00;;;16.07;81.52;97674.03;5012928;28;20500;-71
2023/05/23 04:56:34;;;;;;;11.77;8.73;;;16.30;94.80;;;16.34;80.92;97686.78;4994876;28;20467;-71
2023/05/23 04:59:02;;;;;;;9.47;8.40;;;16.40;94.70;;;16.47;80.38;97681.97;5023346;28;20475;-70
2023/05/23 05:01:30;;;;;;;11.17;8.33;;;16.50;94.70;;;17.25;76.36;97675.84;4990414;28;20542;-72
2023/05/23 05:03:57;;;;;;;9.73;8.50;;;17.10;92.60;;;18.02;72.94;97679.88;4996644;28;20871;-70
2023/05/23 05:06:26;;;;;;;11.13;8.67;;;17.90;90.40;;;18.79;69.87;97678.16;5021062;28;20661;-70
2023/05/23 05:08:55;;;;;;;9.27;7.60;;;18.60;87.90;;;19.07;68.38;97684.13;5001723;28;20462;-74
2023/05/23 05:11:25;;;;;;;9.30;7.43;;;19.00;86.60;;;20.01;65.55;97682.53;5019189;28;20457;-70
2023/05/23 05:13:53;;;;;;;9.90;8.00;;;19.80;85.30;;;20.10;64.78;97685.50;5007607;28;20454;-68
2023/05/23 05:16:20;;;;;;;9.83;7.87;;;20.30;83.70;;;20.78;62.24;97685.69;4994466;28;20446;-70
2023/05/23 05:18:48;;;;;;;8.47;7.67;;;20.80;82.30;;;20.70;61.98;97689.06;5014409;28;20494;-78
2023/05/23 05:21:15;;;;;;;9.03;8.13;;;21.00;81.40;;;19.98;63.88;97690.50;5008696;28;20459;-73
2023/05/23 05:23:42;;;;;;;8.10;6.67;;;20.50;81.50;;;20.08;64.11;97691.25;5002393;28;20514;-71
2023/05/23 05:26:10;;;;;;;9.77;8.10;;;20.30;82.30;;;19.73;65.17;97690.38;4997634;28;20466;-70
2023/05/23 05:28:38;;;;;;;8.30;7.50;;;19.90;82.80;;;19.84;65.01;97693.06;5012071;28;20791;-71
2023/05/23 05:31:05;;;;;;;11.97;8.07;;;19.90;82.80;;;18.91;66.08;97634.88;5009755;28;20531;-73
2023/05/23 05:33:34;;;;;;;10.10;8.57;;;19.70;82.80;;;19.39;65.95;97685.63;5022208;28;20469;-70
2023/05/23 05:36:02;;;;;;;8.20;7.40;;;19.70;83.10;;;20.21;64.02;97692.53;5019080;28;21257;-71
2023/05/23 05:38:29;;;;;;;9.27;7.83;;;20.20;82.80;;;19.70;64.80;97699.16;5006911;28;20463;-70
2023/05/23 05:40:56;;;;;;;10.73;7.60;;;20.20;82.00;;;19.50;65.64;97689.97;5019825;28;20473;-71
2023/05/23 05:43:23;;;;;;;9.10;8.20;;;19.70;82.80;;;19.33;66.59;97697.69;5018970;28;20573;-71
2023/05/23 05:45:52;;;;;;;9.70;7.60;;;19.50;83.80;;;19.31;65.80;97667.88;4999927;28;20471;-79
2023/05/23 05:48:19;;;;;;;8.60;7.70;;;19.60;83.30;;;19.94;64.57;97695.72;5000444;28;20466;-71
2023/05/23 05:50:46;;;;;;;10.03;8.30;;;20.00;82.70;;;19.61;65.05;97698.94;5017625;28;20474;-72
2023/05/23 05:53:15;;;;;;;8.53;7.60;;;20.10;82.30;;;19.64;65.04;97687.41;5006968;28;21351;-73
2023/05/23 05:55:42;;;;;;;8.00;7.20;;;20.00;82.50;;;19.79;64.46;97694.72;5011593;28;20455;-71
2023/05/23 05:58:09;;;;;;;8.53;7.60;;;20.20;82.00;;;20.03;63.21;97677.59;5005200;28;20850;-71
2023/05/23 06:00:40;;;;;;;10.20;7.90;;;20.40;81.80;;;20.24;63.08;97711.16;5010196;28;20467;-72
2023/05/23 06:03:09;;;;;;;10.60;8.10;;;20.60;81.30;;;20.51;62.18;97700.78;4997350;28;20505;-73
2023/05/23 06:05:38;;;;;;;8.63;6.80;;;20.70;80.90;;;20.84;61.37;97705.72;5026997;28;20458;-71
2023/05/23 06:08:05;;;;;;;7.63;6.80;;;21.10;80.30;;;21.48;59.10;97700.84;5018906;28;20463;-71
2023/05/23 06:10:32;;;;;;;8.70;7.77;;;21.70;78.90;;;21.16;59.26;97704.25;5015047;28;20454;-71
2023/05/23 06:13:00;;;;;;;9.40;7.83;;;21.60;78.30;;;21.10;59.56;97711.75;5016359;28;20465;-72
2023/05/23 06:15:27;;;;;;;11.80;8.10;;;21.50;78.30;;;20.33;61.59;97708.63;5001522;28;20457;-70
2023/05/23 06:17:54;;;;;;;9.97;7.70;;;21.10;78.50;;;20.06;63.32;97707.16;5004126;28;20465;-72
2023/05/23 06:20:23;;;;;;;8.73;7.87;;;20.50;80.00;;;19.75;64.27;97692.84;5023154;28;20462;-73
2023/05/23 06:22:50;;;;;;;10.17;7.87;;;20.10;80.90;;;19.27;64.31;97671.44;5013806;28;20482;-74
2023/05/23 06:25:18;;;;;;;9.30;7.30;;;19.90;81.50;;;19.16;66.00;97704.34;4997242;28;20483;-70
2023/05/23 06:27:45;;;;;;;9.07;8.10;;;19.50;82.00;;;19.05;66.35;97708.22;4993155;28;20452;-72
2023/05/23 06:30:14;;;;;;;11.73;9.00;;;19.30;82.40;;;18.81;66.81;97700.56;5022109;28;20969;-74
2023/05/23 06:32:42;;;;;;;12.83;9.53;;;19.10;82.70;;;18.80;67.33;97715.38;5001276;28;20856;-70
2023/05/23 06:35:09;;;;;;;10.80;8.10;;;19.00;83.30;;;19.00;66.46;97700.00;4994793;28;20442;-71
2023/05/23 06:37:44;;;;;;;10.23;8.30;;;19.10;83.10;;;19.10;66.48;97711.75;4991440;28;20455;-73
2023/05/23 06:40:14;;;;;;;10.13;8.20;;;19.10;83.30;;;19.61;64.75;97709.06;5008818;28;20458;-70
2023/05/23 06:42:41;;;;;;;10.00;8.73;;;19.50;83.10;;;19.52;64.28;97711.56;5014426;28;20588;-71
2023/05/23 06:45:09;;;;;;;10.67;8.77;;;19.60;82.00;;;19.69;63.83;97716.69;5024268;28;20544;-71
2023/05/23 06:47:37;;;;;;;8.83;7.53;;;19.80;82.10;;;19.59;64.02;97717.59;4990653;28;20459;-71
2023/05/23 06:50:05;;;;;;;11.20;7.63;;;19.70;81.80;;;19.67;63.76;97714.25;5013967;28;20471;-72
2023/05/23 06:52:32;;;;;;;9.37;8.17;;;19.80;81.70;;;19.49;64.31;97717.63;5009486;28;20466;-71
2023/05/23 06:55:01;;;;;;;10.10;7.90;;;19.70;81.90;;;19.56;64.32;97720.06;4993711;28;20455;-71
2023/05/23 06:57:28;;;;;;;10.43;8.00;;;19.70;82.00;;;19.56;63.87;97723.59;5008600;28;20463;-71
2023/05/23 06:59:55;;;;;;;9.43;8.30;;;19.70;81.60;;;19.34;64.34;97722.06;4994087;28;20517;-72
2023/05/23 07:02:23;;;;;;;10.27;8.63;;;19.50;81.80;;;19.18;64.79;97731.44;4995664;28;20508;-72
2023/05/23 07:04:50;;;;;;;10.07;8.23;;;19.30;81.80;;;19.46;64.71;97738.16;5000797;28;20557;-71
2023/05/23 07:07:18;;;;;;;10.70;9.10;;;19.40;82.30;;;19.37;64.62;97732.47;5008345;28;20466;-71
2023/05/23 07:09:45;;;;;;;11.40;9.00;;;19.50;82.10;;;19.41;64.08;97727.25;5013086;28;20534;-72
2023/05/23 07:12:13;;;;;;;13.57;8.80;;;19.50;81.90;;;19.49;63.87;97732.16;5000901;28;20461;-71
2023/05/23 07:14:40;;;;;;;9.53;8.43;;;19.70;81.60;;;19.23;64.28;97723.19;5007216;28;21001;-71
2023/05/23 07:17:08;;;;;;;8.87;7.97;;;19.50;81.60;;;19.53;63.77;97746.91;5013307;28;20570;-72
2023/05/23 07:19:35;;;;;;;11.03;8.50;;;19.50;81.70;;;19.66;62.73;97742.75;4993776;28;20534;-71
2023/05/23 07:22:02;;;;;;;11.57;8.63;;;19.70;81.10;;;19.60;62.46;97749.34;5022016;28;20470;-72
2023/05/23 07:24:29;;;;;;;10.20;8.70;;;19.70;80.40;;;19.39;63.07;97745.88;4994838;28;20538;-71
2023/05/23 07:26:57;;;;;;;9.10;7.57;;;19.60;80.50;;;19.13;63.83;97750.63;5002191;28;20689;-71
2023/05/23 07:29:26;;;;;;;9.77;8.77;;;19.40;80.80;;;18.78;65.41;97755.88;5009696;28;21033;-70
2023/05/23 07:31:53;;;;;;;8.93;7.67;;;19.10;81.50;;;18.85;65.59;97753.66;5014895;28;21410;-71
2023/05/23 07:34:20;;;;;;;9.73;7.97;;;19.00;82.20;;;18.97;65.67;97748.72;4995008;28;20457;-70
2023/05/23 07:36:49;;;;;;;9.03;7.80;;;19.00;82.50;;;19.12;65.19;97755.28;5015155;28;20468;-72
2023/05/23 07:39:20;;;;;;;8.67;7.73;;;19.10;82.50;;;19.32;64.09;97751.66;5017767;28;20462;-70
2023/05/23 07:41:49;;;;;;;8.87;7.97;;;19.30;81.80;;;19.36;63.83;97743.72;4990000;28;20460;-73
2023/05/23 07:44:17;;;;;;;9.93;7.93;;;19.50;81.80;;;19.11;64.43;97761.84;4993123;28;20483;-73
2023/05/23 07:46:46;;;;;;;9.47;7.77;;;19.30;81.60;;;18.97;65.57;97759.66;5015914;28;21011;-70
2023/05/23 07:49:13;;;;;;;8.67;7.80;;;19.10;82.30;;;18.94;64.88;97762.97;5014800;28;20470;-72
2023/05/23 07:51:41;;;;;;;9.30;8.23;;;19.00;81.70;;;19.17;63.91;97768.94;5009807;28;20499;-71
2023/05/23 07:54:08;;;;;;;8.93;6.97;;;19.10;81.50;;;19.72;62.60;97751.75;4998355;28;20520;-71
2023/05/23 07:56:37;;;;;;;10.70;7.60;;;19.50;81.30;;;19.84;62.03;97756.09;4997770;28;21270;-71
2023/05/23 07:59:04;;;;;;;9.27;7.70;;;19.80;80.80;;;19.97;61.89;97758.25;4994926;28;20459;-70
2023/05/23 08:01:31;;;;;;;9.90;8.63;;;20.00;80.70;;;20.05;61.84;97767.78;5015530;28;20577;-72
2023/05/23 08:04:00;;;;;;;9.87;8.50;;;20.20;80.30;;;20.05;61.13;97768.59;5022593;28;21033;-71
2023/05/23 08:06:27;;;;;;;8.37;7.23;;;20.10;79.80;;;20.18;60.67;97766.31;5010057;28;20984;-70
2023/05/23 08:08:54;;;;;;;12.00;7.97;;;20.10;79.60;;;20.39;59.90;97764.25;5000579;28;20462;-71
2023/05/23 08:11:21;;;;;;;7.90;7.10;;;20.30;79.20;;;20.46;59.75;97772.16;5021198;28;20447;-72
2023/05/23 08:13:49;;;;;;;10.97;8.43;;;20.40;78.90;;;20.13;60.12;97763.63;5017059;28;20960;-71
2023/05/23 08:16:16;;;;;;;10.70;8.37;;;20.30;78.60;;;19.94;60.92;97772.50;5015667;28;20467;-70
2023/05/23 08:18:43;;;;;;;11.80;7.80;;;20.10;78.90;;;19.85;60.93;97771.44;5001863;28;21171;-70
2023/05/23 08:21:11;;;;;;;9.63;7.67;;;20.00;78.60;;;20.07;58.70;97780.09;5023116;28;20462;-71
2023/05/23 08:23:38;;;;;;;8.90;8.00;;;20.10;77.60;;;20.21;58.31;97766.59;4992600;28;20479;-71
2023/05/23 08:26:06;;;;;;;8.33;7.43;;;20.20;77.20;;;20.41;58.04;97761.25;5013925;28;20465;-72
2023/05/23 08:28:34;;;;;;;10.47;7.93;;;20.40;77.00;;;20.65;57.45;97766.81;5014334;28;20468;-72
2023/05/23 08:31:01;;;;;;;9.07;7.03;;;20.50;76.40;;;20.61;57.07;97741.84;5004553;28;20930;-71
2023/05/23 08:33:28;;;;;;;7.40;6.60;;;20.70;76.40;;;20.45;55.29;97770.53;5014985;28;20467;-71
2023/05/23 08:35:56;;;;;;;10.03;7.80;;;20.60;73.30;;;20.36;55.52;97768.38;5017657;28;20492;-69
2023/05/23 08:38:25;;;;;;;8.60;7.57;;;20.50;73.30;;;20.02;56.85;97774.66;5007814;28;20452;-70
2023/05/23 08:40:54;;;;;;;8.03;7.23;;;20.20;74.30;;;20.28;56.32;97777.22;5011349;28;20564;-71
2023/05/23 08:43:21;;;;;;;8.73;7.77;;;20.20;74.00;;;20.87;53.83;97771.84;5016942;28;20528;-71
2023/05/23 08:45:51;;;;;;;8.00;7.20;;;20.70;72.20;;;21.15;53.12;97785.03;4997033;28;20462;-71
2023/05/23 08:48:21;;;;;;;7.70;6.90;;;21.00;71.40;;;21.10;53.34;97783.13;5020578;28;21030;-71
2023/05/23 08:50:50;;;;;;;9.17;6.97;;;21.10;71.10;;;20.64;54.46;97778.88;4988479;28;20482;-71
2023/05/23 08:53:19;;;;;;;7.53;6.83;;;20.80;71.30;;;20.69;53.80;97786.22;5011877;28;20468;-70
2023/05/23 08:55:50;;;;;;;8.03;7.13;;;20.80;70.80;;;20.26;53.81;97734.72;5012641;28;20466;-71
2023/05/23 08:58:19;;;;;;;8.27;6.87;;;20.70;70.40;;;20.77;52.90;97782.88;5015119;28;20472;-70
2023/05/23 09:00:48;;;;;;;8.93;8.03;;;20.70;69.90;;;20.79;53.37;97792.47;4993246;28;20449;-70
2023/05/23 09:03:16;;;;;;;6.00;5.40;;;20.80;70.10;;;20.86;52.47;97741.94;4995513;28;20489;-70
2023/05/23 09:05:43;;;;;;;7.70;6.90;;;21.10;69.50;;;21.12;53.01;97797.41;5010501;28;20653;-70
2023/05/23 09:08:12;;;;;;;7.60;6.90;;;21.30;69.60;;;20.56;54.62;97796.78;5003279;28;20560;-71
2023/05/23 09:10:39;;;;;;;7.77;5.80;;;20.70;70.50;;;20.44;53.76;97801.81;5010419;28;20561;-70
2023/05/23 09:13:08;;;;;;;7.83;6.50;;;20.60;69.40;;;20.63;53.49;97799.22;5010502;28;20455;-70
2023/05/23 09:15:36;;;;;;;7.37;6.60;;;20.70;69.60;;;21.33;52.13;97806.25;4997564;28;20490;-71
2023/05/23 09:18:04;;;;;;;7.30;6.60;;;21.10;69.30;;;21.49;51.42;97804.16;5008808;28;20962;-71
2023/05/23 09:20:31;;;;;;;9.07;6.90;;;21.30;68.50;;;21.70;51.03;97809.44;4992378;28;20469;-71
2023/05/23 09:22:59;;;;;;;7.20;6.47;;;21.60;68.10;;;22.15;50.47;97792.63;4996601;28;20495;-71
2023/05/23 09:25:26;;;;;;;7.47;6.53;;;21.90;67.80;;;21.82;51.10;97805.44;4993262;28;20463;-72
2023/05/23 09:27:55;;;;;;;7.93;6.50;;;21.90;67.20;;;21.25;52.66;97811.56;5010031;28;20958;-72
2023/05/23 09:30:24;;;;;;;7.87;7.17;;;21.40;67.90;;;21.02;52.59;97812.06;4996889;28;20463;-72
2023/05/23 09:33:01;;;;;;;7.57;6.27;;;21.20;67.90;;;20.34;54.05;97810.94;5012982;28;20454;-71
2023/05/23 09:35:29;;;;;;;7.00;6.33;;;20.60;68.30;;;20.27;54.41;97763.78;5013814;28;20479;-71
2023/05/23 09:37:59;;;;;;;7.97;6.60;;;20.50;69.80;;;20.83;53.40;97817.44;4992906;28;20546;-71
2023/05/23 09:40:31;;;;;;;7.47;6.33;;;20.80;69.10;;;20.66;53.05;97815.09;4996748;28;20469;-71
2023/05/23 09:43:03;;;;;;;6.90;5.80;;;20.70;68.10;;;21.07;51.56;97808.44;5011809;28;20453;-73
2023/05/23 09:45:33;;;;;;;7.50;6.60;;;20.90;67.40;;;21.06;52.36;97823.28;5007895;28;20811;-75
2023/05/23 09:48:01;;;;;;;9.03;8.03;;;21.10;68.00;;;20.95;52.82;97817.88;4989697;28;20462;-70
2023/05/23 09:50:33;;;;;;;7.00;6.07;;;21.00;68.20;;;21.27;53.08;97809.34;5013129;28;20463;-71
2023/05/23 09:53:00;;;;;;;7.00;6.40;;;21.20;69.00;;;20.81;53.39;97794.94;5002560;28;20458;-72
2023/05/23 09:55:27;;;;;;;8.10;6.70;;;21.10;68.50;;;20.58;54.16;97829.41;5013625;28;20490;-73
2023/05/23 09:57:55;;;;;;;6.90;6.20;;;20.80;68.50;;;20.65;54.10;97835.41;4991103;28;20454;-71
2023/05/23 10:00:25;;;;;;;7.40;6.57;;;20.70;68.80;;;20.90;53.27;97823.44;5004402;28;20569;-72
2023/05/23 10:03:07;;;;;;;8.93;7.90;;;21.00;68.70;;;20.31;54.65;97837.00;5009793;28;20545;-72
2023/05/23 10:05:39;;;;;;;7.57;6.83;;;20.60;68.50;;;20.70;54.51;97831.78;5013919;28;20554;-71
2023/05/23 10:08:13;;;;;;;7.80;6.30;;;20.60;69.30;;;20.20;54.20;97843.66;5015034;28;20946;-72
2023/05/23 10:11:48;;;;;;;7.33;6.63;;;20.50;68.20;;;20.36;53.84;97838.91;5007379;28;20457;-72
2023/05/23 10:14:17;;;;;;;7.50;6.47;;;20.40;68.20;;;20.33;53.33;97832.06;5001371;28;20574;-70
2023/05/23 10:16:56;;;;;;;7.13;6.33;;;20.40;68.10;;;20.46;53.20;97827.84;5005882;28;20586;-78
2023/05/23 10:19:32;;;;;;;6.63;6.03;;;20.60;67.60;;;20.49;52.49;97837.44;5008389;28;20461;-77
2023/05/23 10:22:02;;;;;;;6.40;5.70;;;20.60;67.10;;;20.49;52.18;97831.94;4997728;28;20471;-78
2023/05/23 10:24:30;;;;;;;6.30;5.53;;;20.50;66.60;;;20.83;50.97;97820.19;5020469;28;20476;-79